Portada
METAR-TAF:

METAR-TAF

Aeropuertos :

Stennis International Airport

Bay St. Louis, Misisipi, Estados Unidos

latitud: 30-22-04N, longitud: 089-27-17W, altitud: 7 m

Observación

El informe se hizo hace 1 hora y 34 minutos, a las 16:50 UTC
Viento 5 kt del norte
Temperatura 12°C
Humedad 88%
Presión 1018 hPa
Visibilidad: 11.3 km
Cielo cubierto a una altura de 900 ft

METAR: KHSA 271650Z 35005KT 7SM OVC009 12/10 A3005

Hora: 12:24 (18:24 UTC)


TAF: falta

Observaciones y pronósticos meteorológicos de más de 4000 aeropuertos (mensajes METAR y TAF).

Los puntos amarillos y rojos representan las estaciones disponibles.

Ponga el ratón en el punto deseado para ver el nombre de la estación.

Haga clic para ver las observaciones y los pronósticos meteorológicos.

Para cambiar el mapa : haga clic en los botones verdes con una cruz de color negro para hacer un zoom, en el botón verde con un guión para alejar o en las flechas verdes para mapas adyacentes.


METAR-TAF: